createdAt,value
2023-03-23T15:59:59.126Z,-24252.61
2023-03-23T16:02:27.382Z,-24251.56
2023-03-23T16:04:56.550Z,-24251.07
2023-03-23T16:07:25.018Z,-24250.54
2023-03-23T16:09:53.386Z,-24249.98
2023-03-23T16:12:21.636Z,-24249.36
2023-03-23T16:14:50.483Z,-24249.11
2023-03-23T16:17:20.078Z,-24248.92
2023-03-23T16:19:50.184Z,-24248.71
2023-03-23T16:22:18.743Z,-24248.00
2023-03-23T16:24:50.718Z,-24247.47
2023-03-23T16:27:21.670Z,-24246.70
2023-03-23T16:30:02.823Z,-24246.29
2023-03-23T16:35:03.336Z,-24245.27
2023-03-23T16:37:34.649Z,-24244.84
2023-03-23T16:40:03.652Z,-24244.44
2023-03-23T16:42:32.581Z,-24244.06
2023-03-23T16:45:01.562Z,-24243.50
2023-03-23T16:47:30.415Z,-24242.73
2023-03-23T16:50:06.843Z,-24242.21
2023-03-23T16:52:35.492Z,-24241.96
2023-03-23T16:55:15.963Z,-24241.93
2023-03-23T16:57:44.977Z,-24241.99
2023-03-23T17:00:16.842Z,-24241.68
2023-03-23T17:02:45.252Z,-24241.34
2023-03-23T17:05:14.100Z,-24240.63
2023-03-23T17:07:42.555Z,-24239.79
2023-03-23T17:10:15.877Z,-24239.08
2023-03-23T17:12:45.977Z,-24238.58
2023-03-23T17:15:15.414Z,-24237.93
2023-03-23T17:17:45.957Z,-24237.28
2023-03-23T17:20:14.136Z,-24236.48
2023-03-23T17:22:42.329Z,-24235.61
2023-03-23T17:25:12.187Z,-24234.87
2023-03-23T17:27:41.173Z,-24234.18
2023-03-23T17:30:15.601Z,-24232.98
2023-03-23T17:32:49.598Z,-24231.40
2023-03-23T17:35:17.897Z,-24230.25
2023-03-23T17:37:49.033Z,-24229.20
2023-03-23T17:40:17.410Z,-24228.43
2023-03-23T17:42:45.578Z,-24227.18
2023-03-23T17:45:15.524Z,-24226.13
2023-03-23T17:47:44.197Z,-24225.08
2023-03-23T17:50:18.883Z,-24224.24
2023-03-23T17:52:47.420Z,-24223.22
2023-03-23T17:55:15.995Z,-24222.20
2023-03-23T17:57:45.633Z,-24221.24
2023-03-23T18:00:15.502Z,-24220.18
2023-03-23T18:02:44.153Z,-24219.13
2023-03-23T18:05:12.858Z,-24218.32
2023-03-23T18:07:41.454Z,-24217.33
2023-03-23T18:10:13.243Z,-24216.58
2023-03-23T18:12:41.856Z,-24215.65
2023-03-23T18:15:10.627Z,-24214.57
2023-03-23T18:17:38.977Z,-24214.07
2023-03-23T18:20:07.756Z,-24213.58
2023-03-23T18:22:37.188Z,-24212.89
2023-03-23T18:25:06.146Z,-24212.06
2023-03-23T18:27:34.945Z,-24211.10
2023-03-23T18:30:04.052Z,-24210.23
2023-03-23T18:32:38.456Z,-24209.33
2023-03-23T18:35:08.104Z,-24208.33
2023-03-23T18:37:37.078Z,-24207.47
2023-03-23T18:40:07.298Z,-24206.57
2023-03-23T18:42:36.989Z,-24205.55
2023-03-23T18:45:05.968Z,-24204.53
2023-03-23T18:47:34.328Z,-24203.00
2023-03-23T18:50:02.561Z,-24201.36
2023-03-23T18:52:32.085Z,-24199.87
2023-03-23T18:55:00.850Z,-24198.48
2023-03-23T18:57:29.147Z,-24197.17
2023-03-23T18:59:57.570Z,-24195.96
2023-03-23T19:02:25.982Z,-24194.97
2023-03-23T19:04:54.230Z,-24194.07
2023-03-23T19:07:22.388Z,-24193.08
2023-03-23T19:09:50.718Z,-24191.90
2023-03-23T19:12:23.346Z,-24190.75
2023-03-23T19:14:52.653Z,-24189.51
2023-03-23T19:17:20.836Z,-24188.36
2023-03-23T19:19:52.629Z,-24187.62
2023-03-23T19:22:21.118Z,-24186.68
2023-03-23T19:24:49.216Z,-24185.60
2023-03-23T19:27:21.027Z,-24184.82
2023-03-23T19:29:49.976Z,-24184.08
2023-03-23T19:32:18.702Z,-24182.93
2023-03-23T19:34:51.056Z,-24181.78
2023-03-23T19:37:20.035Z,-24180.69
2023-03-23T19:39:48.319Z,-24179.26
2023-03-23T19:42:18.573Z,-24177.96
2023-03-23T19:44:47.459Z,-24177.06
2023-03-23T19:47:16.480Z,-24176.25
2023-03-23T19:49:45.697Z,-24175.29
2023-03-23T19:52:15.068Z,-24174.27
2023-03-23T19:54:46.067Z,-24173.43
2023-03-23T19:57:14.759Z,-24172.37
2023-03-23T19:59:44.319Z,-24171.63
2023-03-23T20:02:12.749Z,-24170.76
2023-03-23T20:04:41.521Z,-24169.92
2023-03-23T20:07:10.237Z,-24169.33
2023-03-23T20:09:38.956Z,-24168.89
2023-03-23T20:12:10.786Z,-24168.58
2023-03-23T20:14:45.133Z,-24168.30
2023-03-23T20:17:14.729Z,-24167.93
2023-03-23T20:19:45.413Z,-24167.09
2023-03-23T20:22:14.637Z,-24166.38
2023-03-23T20:24:43.504Z,-24165.79
2023-03-23T20:27:16.621Z,-24165.32
2023-03-23T20:29:45.105Z,-24164.73
2023-03-23T20:32:17.661Z,-24164.36
2023-03-23T20:34:49.374Z,-24163.55
2023-03-23T20:37:20.921Z,-24162.99
2023-03-23T20:39:50.151Z,-24162.74
2023-03-23T20:42:18.337Z,-24162.21
2023-03-23T20:44:47.485Z,-24161.50
2023-03-23T20:47:18.113Z,-24160.29
2023-03-23T20:49:53.308Z,-24159.48
2023-03-23T20:52:23.418Z,-24158.58
2023-03-23T20:54:55.171Z,-24157.59
2023-03-23T20:57:23.479Z,-24156.84
2023-03-23T20:59:55.520Z,-24156.03
2023-03-23T21:02:26.088Z,-24154.95
2023-03-23T21:04:58.401Z,-24153.95
2023-03-23T21:07:27.514Z,-24152.96
2023-03-23T21:09:56.298Z,-24152.00
2023-03-23T21:12:32.096Z,-24151.03
2023-03-23T21:15:01.699Z,-24150.25
2023-03-23T21:17:30.292Z,-24149.23
2023-03-23T21:20:08.550Z,-24147.95
2023-03-23T21:22:36.764Z,-24146.71
2023-03-23T21:25:05.280Z,-24145.78
2023-03-23T21:27:33.580Z,-24144.85
2023-03-23T21:30:03.427Z,-24143.88
2023-03-23T21:32:32.996Z,-24142.91
2023-03-23T21:35:03.257Z,-24142.17
2023-03-23T21:37:31.558Z,-24141.51
2023-03-23T21:40:01.303Z,-24140.83
2023-03-23T21:42:32.303Z,-24140.21
2023-03-23T21:45:03.277Z,-24139.71
2023-03-23T21:47:32.776Z,-24138.90
2023-03-23T21:50:02.149Z,-24137.84
2023-03-23T21:52:32.166Z,-24137.47
2023-03-23T21:55:02.676Z,-24137.38
2023-03-23T21:57:31.947Z,-24136.85
2023-03-23T22:00:14.656Z,-24136.57
2023-03-23T22:02:45.182Z,-24136.32
2023-03-23T22:05:13.444Z,-24135.79
2023-03-23T22:07:46.452Z,-24135.26
2023-03-23T22:10:15.644Z,-24134.86
2023-03-23T22:12:43.887Z,-24134.70
2023-03-23T22:15:18.275Z,-24134.67
2023-03-23T22:17:47.404Z,-24134.61
2023-03-23T22:20:15.652Z,-24134.27
2023-03-23T22:22:46.455Z,-24133.96
2023-03-23T22:25:14.843Z,-24133.80
2023-03-23T22:27:43.454Z,-24133.77
2023-03-23T22:30:12.558Z,-24133.40
2023-03-23T22:32:42.271Z,-24132.53
2023-03-23T22:35:12.737Z,-24131.50
2023-03-23T22:37:41.281Z,-24130.72
2023-03-23T22:40:11.555Z,-24130.16
2023-03-23T22:42:40.917Z,-24129.95
2023-03-23T22:45:09.863Z,-24129.51
2023-03-23T22:47:38.824Z,-24129.26
2023-03-23T22:50:08.322Z,-24129.08
2023-03-23T22:52:37.044Z,-24129.14
2023-03-23T22:55:08.609Z,-24128.95
2023-03-23T22:57:37.765Z,-24128.45
2023-03-23T23:00:14.619Z,-24128.08
2023-03-23T23:02:44.000Z,-24127.62
2023-03-23T23:05:12.505Z,-24127.37
2023-03-23T23:07:42.905Z,-24126.96
2023-03-23T23:10:11.983Z,-24126.40
2023-03-23T23:12:42.681Z,-24126.15
2023-03-23T23:15:20.421Z,-24125.72
2023-03-23T23:17:48.811Z,-24125.15
2023-03-23T23:20:18.984Z,-24124.47
2023-03-23T23:22:49.071Z,-24124.04
2023-03-23T23:25:17.521Z,-24123.60
2023-03-23T23:27:46.092Z,-24123.11
2023-03-23T23:30:14.419Z,-24122.64
2023-03-23T23:32:52.189Z,-24122.01
2023-03-23T23:35:26.450Z,-24121.05
2023-03-23T23:37:55.748Z,-24120.15
2023-03-23T23:40:24.065Z,-24119.40
2023-03-23T23:42:53.729Z,-24118.84
2023-03-23T23:45:22.666Z,-24118.81
2023-03-23T23:47:57.904Z,-24118.65
2023-03-23T23:50:26.402Z,-24118.56
2023-03-23T23:52:54.863Z,-24118.71
2023-03-23T23:55:23.297Z,-24118.62
2023-03-23T23:57:51.957Z,-24118.43
